sensor_id;sensor_type;location;lat;lon;timestamp;P1;durP1;ratioP1;P2;durP2;ratioP2
9759;SDS011;4919;48.792;9.202;2023-04-24T00:02:03;7.37;;;6.00;;
9759;SDS011;4919;48.792;9.202;2023-04-24T00:04:48;6.67;;;5.90;;
9759;SDS011;4919;48.792;9.202;2023-04-24T00:07:33;8.27;;;6.23;;
9759;SDS011;4919;48.792;9.202;2023-04-24T00:10:18;6.80;;;5.73;;
9759;SDS011;4919;48.792;9.202;2023-04-24T00:13:03;7.40;;;6.43;;
9759;SDS011;4919;48.792;9.202;2023-04-24T00:15:48;7.40;;;6.57;;
9759;SDS011;4919;48.792;9.202;2023-04-24T00:18:33;8.17;;;6.63;;
9759;SDS011;4919;48.792;9.202;2023-04-24T00:21:18;8.33;;;6.30;;
9759;SDS011;4919;48.792;9.202;2023-04-24T00:24:03;7.60;;;6.50;;
9759;SDS011;4919;48.792;9.202;2023-04-24T00:26:48;6.90;;;6.20;;
9759;SDS011;4919;48.792;9.202;2023-04-24T00:29:33;6.77;;;6.07;;
9759;SDS011;4919;48.792;9.202;2023-04-24T00:32:18;9.30;;;6.70;;
9759;SDS011;4919;48.792;9.202;2023-04-24T00:35:03;7.70;;;6.90;;
9759;SDS011;4919;48.792;9.202;2023-04-24T00:37:49;7.17;;;6.03;;
9759;SDS011;4919;48.792;9.202;2023-04-24T00:40:34;7.67;;;6.73;;
9759;SDS011;4919;48.792;9.202;2023-04-24T00:43:18;7.93;;;6.33;;
9759;SDS011;4919;48.792;9.202;2023-04-24T00:46:03;7.53;;;6.73;;
9759;SDS011;4919;48.792;9.202;2023-04-24T00:48:48;8.23;;;6.37;;
9759;SDS011;4919;48.792;9.202;2023-04-24T00:51:34;8.27;;;6.77;;
9759;SDS011;4919;48.792;9.202;2023-04-24T00:54:19;8.10;;;6.80;;
9759;SDS011;4919;48.792;9.202;2023-04-24T00:57:04;9.27;;;6.40;;
9759;SDS011;4919;48.792;9.202;2023-04-24T00:59:49;7.33;;;6.63;;
9759;SDS011;4919;48.792;9.202;2023-04-24T01:02:34;8.67;;;7.10;;
9759;SDS011;4919;48.792;9.202;2023-04-24T01:05:19;8.07;;;6.90;;
9759;SDS011;4919;48.792;9.202;2023-04-24T01:08:04;8.23;;;7.33;;
9759;SDS011;4919;48.792;9.202;2023-04-24T01:10:49;8.40;;;7.17;;
9759;SDS011;4919;48.792;9.202;2023-04-24T01:13:36;7.57;;;6.77;;
9759;SDS011;4919;48.792;9.202;2023-04-24T01:16:21;8.70;;;7.50;;
9759;SDS011;4919;48.792;9.202;2023-04-24T01:19:06;8.40;;;7.43;;
9759;SDS011;4919;48.792;9.202;2023-04-24T01:21:51;8.03;;;7.00;;
9759;SDS011;4919;48.792;9.202;2023-04-24T01:24:39;8.73;;;7.10;;
9759;SDS011;4919;48.792;9.202;2023-04-24T01:27:24;8.17;;;7.30;;
9759;SDS011;4919;48.792;9.202;2023-04-24T01:30:09;8.00;;;7.20;;
9759;SDS011;4919;48.792;9.202;2023-04-24T01:32:55;7.80;;;6.90;;
9759;SDS011;4919;48.792;9.202;2023-04-24T01:35:40;8.83;;;7.80;;
9759;SDS011;4919;48.792;9.202;2023-04-24T01:38:26;7.70;;;6.90;;
9759;SDS011;4919;48.792;9.202;2023-04-24T01:41:11;8.43;;;7.53;;
9759;SDS011;4919;48.792;9.202;2023-04-24T01:43:56;8.60;;;7.70;;
9759;SDS011;4919;48.792;9.202;2023-04-24T01:46:41;8.50;;;6.70;;
9759;SDS011;4919;48.792;9.202;2023-04-24T01:49:27;8.40;;;6.93;;
9759;SDS011;4919;48.792;9.202;2023-04-24T01:52:11;8.57;;;7.60;;
9759;SDS011;4919;48.792;9.202;2023-04-24T01:54:56;8.23;;;6.97;;
9759;SDS011;4919;48.792;9.202;2023-04-24T01:57:44;7.87;;;7.07;;
9759;SDS011;4919;48.792;9.202;2023-04-24T02:00:28;8.20;;;7.40;;
9759;SDS011;4919;48.792;9.202;2023-04-24T02:03:14;8.13;;;6.97;;
9759;SDS011;4919;48.792;9.202;2023-04-24T02:05:58;7.60;;;6.80;;
9759;SDS011;4919;48.792;9.202;2023-04-24T02:08:43;8.50;;;7.60;;
9759;SDS011;4919;48.792;9.202;2023-04-24T02:11:28;8.43;;;7.53;;
9759;SDS011;4919;48.792;9.202;2023-04-24T02:14:13;7.90;;;6.83;;
9759;SDS011;4919;48.792;9.202;2023-04-24T02:16:58;7.50;;;6.70;;
9759;SDS011;4919;48.792;9.202;2023-04-24T02:19:43;9.80;;;7.43;;
9759;SDS011;4919;48.792;9.202;2023-04-24T02:22:27;9.10;;;7.03;;
9759;SDS011;4919;48.792;9.202;2023-04-24T02:25:12;8.57;;;7.50;;
9759;SDS011;4919;48.792;9.202;2023-04-24T02:27:57;8.10;;;7.23;;
9759;SDS011;4919;48.792;9.202;2023-04-24T02:30:42;8.67;;;7.50;;
9759;SDS011;4919;48.792;9.202;2023-04-24T02:33:27;8.77;;;7.10;;
9759;SDS011;4919;48.792;9.202;2023-04-24T02:36:12;8.20;;;7.27;;
9759;SDS011;4919;48.792;9.202;2023-04-24T02:38:57;9.50;;;7.27;;
9759;SDS011;4919;48.792;9.202;2023-04-24T02:41:45;9.50;;;7.77;;
9759;SDS011;4919;48.792;9.202;2023-04-24T02:44:30;9.00;;;7.53;;
9759;SDS011;4919;48.792;9.202;2023-04-24T02:47:15;8.77;;;7.67;;
9759;SDS011;4919;48.792;9.202;2023-04-24T02:49:59;8.33;;;7.53;;
9759;SDS011;4919;48.792;9.202;2023-04-24T02:52:44;8.27;;;7.43;;
9759;SDS011;4919;48.792;9.202;2023-04-24T02:55:29;8.63;;;7.60;;
9759;SDS011;4919;48.792;9.202;2023-04-24T02:58:14;8.30;;;7.50;;
9759;SDS011;4919;48.792;9.202;2023-04-24T03:00:59;8.57;;;7.53;;
9759;SDS011;4919;48.792;9.202;2023-04-24T03:03:44;7.90;;;7.10;;
9759;SDS011;4919;48.792;9.202;2023-04-24T03:06:29;8.50;;;7.60;;
9759;SDS011;4919;48.792;9.202;2023-04-24T03:09:13;9.77;;;8.00;;
9759;SDS011;4919;48.792;9.202;2023-04-24T03:11:58;8.50;;;7.13;;
9759;SDS011;4919;48.792;9.202;2023-04-24T03:14:43;8.20;;;7.40;;
9759;SDS011;4919;48.792;9.202;2023-04-24T03:17:28;8.53;;;7.67;;
9759;SDS011;4919;48.792;9.202;2023-04-24T03:20:13;9.20;;;8.03;;
9759;SDS011;4919;48.792;9.202;2023-04-24T03:22:58;10.33;;;7.43;;
9759;SDS011;4919;48.792;9.202;2023-04-24T03:25:43;8.20;;;7.30;;
9759;SDS011;4919;48.792;9.202;2023-04-24T03:28:27;9.37;;;7.70;;
9759;SDS011;4919;48.792;9.202;2023-04-24T03:31:12;8.57;;;7.63;;
9759;SDS011;4919;48.792;9.202;2023-04-24T03:33:57;10.73;;;7.40;;
9759;SDS011;4919;48.792;9.202;2023-04-24T03:36:42;8.43;;;7.50;;
9759;SDS011;4919;48.792;9.202;2023-04-24T03:39:27;7.60;;;6.90;;
9759;SDS011;4919;48.792;9.202;2023-04-24T03:42:11;8.93;;;6.97;;
9759;SDS011;4919;48.792;9.202;2023-04-24T03:44:56;7.77;;;6.70;;
9759;SDS011;4919;48.792;9.202;2023-04-24T03:47:41;8.00;;;7.20;;
9759;SDS011;4919;48.792;9.202;2023-04-24T03:50:26;8.27;;;7.20;;
9759;SDS011;4919;48.792;9.202;2023-04-24T03:53:11;8.70;;;7.27;;
9759;SDS011;4919;48.792;9.202;2023-04-24T03:55:56;9.13;;;7.13;;
9759;SDS011;4919;48.792;9.202;2023-04-24T03:58:41;7.77;;;6.97;;
9759;SDS011;4919;48.792;9.202;2023-04-24T04:01:26;7.33;;;6.53;;
9759;SDS011;4919;48.792;9.202;2023-04-24T04:04:11;7.73;;;6.70;;
9759;SDS011;4919;48.792;9.202;2023-04-24T04:06:56;7.30;;;6.60;;
9759;SDS011;4919;48.792;9.202;2023-04-24T04:09:41;7.90;;;6.37;;
9759;SDS011;4919;48.792;9.202;2023-04-24T04:12:26;7.60;;;6.50;;
9759;SDS011;4919;48.792;9.202;2023-04-24T04:15:11;8.00;;;6.90;;
9759;SDS011;4919;48.792;9.202;2023-04-24T04:17:55;7.90;;;6.63;;
9759;SDS011;4919;48.792;9.202;2023-04-24T04:20:40;7.13;;;6.40;;
9759;SDS011;4919;48.792;9.202;2023-04-24T04:23:25;7.30;;;6.60;;
9759;SDS011;4919;48.792;9.202;2023-04-24T04:26:10;8.20;;;6.27;;
9759;SDS011;4919;48.792;9.202;2023-04-24T04:28:55;7.17;;;6.47;;
9759;SDS011;4919;48.792;9.202;2023-04-24T04:31:40;8.30;;;6.80;;
9759;SDS011;4919;48.792;9.202;2023-04-24T04:34:25;7.30;;;6.60;;
9759;SDS011;4919;48.792;9.202;2023-04-24T04:37:10;7.03;;;6.33;;
9759;SDS011;4919;48.792;9.202;2023-04-24T04:39:54;7.47;;;6.27;;
9759;SDS011;4919;48.792;9.202;2023-04-24T04:42:39;8.23;;;6.13;;
9759;SDS011;4919;48.792;9.202;2023-04-24T04:45:24;6.57;;;5.77;;
9759;SDS011;4919;48.792;9.202;2023-04-24T04:48:09;6.40;;;5.70;;
9759;SDS011;4919;48.792;9.202;2023-04-24T04:50:54;6.57;;;5.63;;
9759;SDS011;4919;48.792;9.202;2023-04-24T04:53:39;5.77;;;5.17;;
9759;SDS011;4919;48.792;9.202;2023-04-24T04:56:23;4.90;;;4.40;;
9759;SDS011;4919;48.792;9.202;2023-04-24T04:59:08;5.00;;;4.27;;
9759;SDS011;4919;48.792;9.202;2023-04-24T05:01:53;5.30;;;4.60;;
9759;SDS011;4919;48.792;9.202;2023-04-24T05:04:38;4.97;;;4.20;;
9759;SDS011;4919;48.792;9.202;2023-04-24T05:07:23;5.63;;;3.97;;
9759;SDS011;4919;48.792;9.202;2023-04-24T05:10:08;4.63;;;3.83;;
9759;SDS011;4919;48.792;9.202;2023-04-24T05:12:53;5.77;;;4.20;;
9759;SDS011;4919;48.792;9.202;2023-04-24T05:15:38;4.20;;;3.80;;
9759;SDS011;4919;48.792;9.202;2023-04-24T05:18:23;4.67;;;3.60;;
9759;SDS011;4919;48.792;9.202;2023-04-24T05:21:07;4.00;;;3.27;;
9759;SDS011;4919;48.792;9.202;2023-04-24T05:23:52;4.90;;;3.90;;
9759;SDS011;4919;48.792;9.202;2023-04-24T05:26:37;3.83;;;3.40;;
9759;SDS011;4919;48.792;9.202;2023-04-24T05:29:22;3.90;;;3.40;;
9759;SDS011;4919;48.792;9.202;2023-04-24T05:32:07;4.43;;;3.10;;
9759;SDS011;4919;48.792;9.202;2023-04-24T05:34:52;3.07;;;2.77;;
9759;SDS011;4919;48.792;9.202;2023-04-24T05:37:37;3.83;;;2.80;;
9759;SDS011;4919;48.792;9.202;2023-04-24T05:40:22;3.20;;;2.90;;
9759;SDS011;4919;48.792;9.202;2023-04-24T05:43:07;3.93;;;2.73;;
9759;SDS011;4919;48.792;9.202;2023-04-24T05:45:51;2.97;;;2.67;;
9759;SDS011;4919;48.792;9.202;2023-04-24T05:48:36;2.70;;;2.50;;
9759;SDS011;4919;48.792;9.202;2023-04-24T05:51:21;2.90;;;2.60;;
9759;SDS011;4919;48.792;9.202;2023-04-24T05:54:06;3.43;;;2.60;;
9759;SDS011;4919;48.792;9.202;2023-04-24T05:56:51;3.60;;;2.57;;
9759;SDS011;4919;48.792;9.202;2023-04-24T05:59:36;5.17;;;3.23;;
9759;SDS011;4919;48.792;9.202;2023-04-24T06:02:21;5.50;;;2.70;;
9759;SDS011;4919;48.792;9.202;2023-04-24T06:05:07;2.97;;;2.67;;
9759;SDS011;4919;48.792;9.202;2023-04-24T06:07:51;3.33;;;2.60;;
9759;SDS011;4919;48.792;9.202;2023-04-24T06:10:36;2.97;;;2.40;;
9759;SDS011;4919;48.792;9.202;2023-04-24T06:13:21;2.93;;;2.13;;
9759;SDS011;4919;48.792;9.202;2023-04-24T06:16:06;3.03;;;2.50;;
9759;SDS011;4919;48.792;9.202;2023-04-24T06:18:51;2.87;;;2.30;;
9759;SDS011;4919;48.792;9.202;2023-04-24T06:21:36;2.27;;;2.00;;
9759;SDS011;4919;48.792;9.202;2023-04-24T06:24:21;4.10;;;2.40;;
9759;SDS011;4919;48.792;9.202;2023-04-24T06:27:05;3.53;;;2.30;;
9759;SDS011;4919;48.792;9.202;2023-04-24T06:29:50;3.33;;;2.10;;
9759;SDS011;4919;48.792;9.202;2023-04-24T06:32:35;2.10;;;1.90;;
9759;SDS011;4919;48.792;9.202;2023-04-24T06:35:20;1.97;;;1.77;;
9759;SDS011;4919;48.792;9.202;2023-04-24T06:38:05;2.80;;;1.80;;
9759;SDS011;4919;48.792;9.202;2023-04-24T06:40:50;2.93;;;2.00;;
9759;SDS011;4919;48.792;9.202;2023-04-24T06:43:35;3.13;;;1.90;;
9759;SDS011;4919;48.792;9.202;2023-04-24T06:46:20;1.90;;;1.77;;
9759;SDS011;4919;48.792;9.202;2023-04-24T06:49:05;1.70;;;1.60;;
9759;SDS011;4919;48.792;9.202;2023-04-24T06:51:50;1.67;;;1.50;;
9759;SDS011;4919;48.792;9.202;2023-04-24T06:54:35;1.50;;;1.40;;
9759;SDS011;4919;48.792;9.202;2023-04-24T06:57:20;2.47;;;1.60;;
9759;SDS011;4919;48.792;9.202;2023-04-24T07:00:05;2.13;;;1.53;;
9759;SDS011;4919;48.792;9.202;2023-04-24T07:02:50;1.77;;;1.40;;
9759;SDS011;4919;48.792;9.202;2023-04-24T07:05:35;1.77;;;1.40;;
9759;SDS011;4919;48.792;9.202;2023-04-24T07:08:20;1.70;;;1.53;;
9759;SDS011;4919;48.792;9.202;2023-04-24T07:11:05;1.60;;;1.50;;
9759;SDS011;4919;48.792;9.202;2023-04-24T07:13:50;1.63;;;1.53;;
9759;SDS011;4919;48.792;9.202;2023-04-24T07:16:35;1.63;;;1.40;;
9759;SDS011;4919;48.792;9.202;2023-04-24T07:19:20;2.87;;;1.40;;
9759;SDS011;4919;48.792;9.202;2023-04-24T07:22:05;3.03;;;1.10;;
9759;SDS011;4919;48.792;9.202;2023-04-24T07:24:50;1.83;;;1.40;;
9759;SDS011;4919;48.792;9.202;2023-04-24T07:27:34;1.50;;;1.40;;
9759;SDS011;4919;48.792;9.202;2023-04-24T07:30:19;1.53;;;1.43;;
9759;SDS011;4919;48.792;9.202;2023-04-24T07:33:04;2.00;;;1.30;;
9759;SDS011;4919;48.792;9.202;2023-04-24T07:35:49;2.17;;;1.37;;
9759;SDS011;4919;48.792;9.202;2023-04-24T07:38:33;2.37;;;1.20;;
9759;SDS011;4919;48.792;9.202;2023-04-24T07:41:18;1.87;;;1.23;;
9759;SDS011;4919;48.792;9.202;2023-04-24T07:44:03;2.27;;;1.30;;
9759;SDS011;4919;48.792;9.202;2023-04-24T07:46:48;1.40;;;1.30;;
9759;SDS011;4919;48.792;9.202;2023-04-24T07:49:33;2.07;;;1.20;;
9759;SDS011;4919;48.792;9.202;2023-04-24T07:52:18;1.53;;;1.33;;
9759;SDS011;4919;48.792;9.202;2023-04-24T07:55:03;1.37;;;1.27;;
9759;SDS011;4919;48.792;9.202;2023-04-24T07:57:48;1.30;;;1.20;;
9759;SDS011;4919;48.792;9.202;2023-04-24T08:00:33;1.50;;;1.30;;
9759;SDS011;4919;48.792;9.202;2023-04-24T08:03:18;1.83;;;1.30;;
9759;SDS011;4919;48.792;9.202;2023-04-24T08:06:03;1.30;;;1.20;;
9759;SDS011;4919;48.792;9.202;2023-04-24T08:08:48;2.10;;;1.20;;
9759;SDS011;4919;48.792;9.202;2023-04-24T08:11:32;1.47;;;1.20;;
9759;SDS011;4919;48.792;9.202;2023-04-24T08:14:17;1.50;;;1.00;;
9759;SDS011;4919;48.792;9.202;2023-04-24T08:17:02;2.03;;;1.10;;
9759;SDS011;4919;48.792;9.202;2023-04-24T08:19:47;0.87;;;0.87;;
9759;SDS011;4919;48.792;9.202;2023-04-24T08:22:32;1.43;;;1.03;;
9759;SDS011;4919;48.792;9.202;2023-04-24T08:25:17;1.20;;;1.10;;
9759;SDS011;4919;48.792;9.202;2023-04-24T08:28:02;0.90;;;0.90;;
9759;SDS011;4919;48.792;9.202;2023-04-24T08:30:50;1.17;;;1.07;;
9759;SDS011;4919;48.792;9.202;2023-04-24T08:33:35;1.27;;;1.07;;
9759;SDS011;4919;48.792;9.202;2023-04-24T08:36:20;1.10;;;1.00;;
9759;SDS011;4919;48.792;9.202;2023-04-24T08:39:05;2.10;;;1.20;;
9759;SDS011;4919;48.792;9.202;2023-04-24T08:41:50;1.00;;;1.00;;
9759;SDS011;4919;48.792;9.202;2023-04-24T08:44:35;1.20;;;1.10;;
9759;SDS011;4919;48.792;9.202;2023-04-24T08:47:20;2.27;;;1.27;;
9759;SDS011;4919;48.792;9.202;2023-04-24T08:50:06;15.10;;;13.30;;
9759;SDS011;4919;48.792;9.202;2023-04-24T08:52:52;1.87;;;1.40;;
9759;SDS011;4919;48.792;9.202;2023-04-24T08:55:37;2.47;;;1.17;;
9759;SDS011;4919;48.792;9.202;2023-04-24T08:58:23;2.13;;;1.20;;
9759;SDS011;4919;48.792;9.202;2023-04-24T09:01:09;1.47;;;1.17;;
9759;SDS011;4919;48.792;9.202;2023-04-24T09:03:55;1.17;;;1.10;;
9759;SDS011;4919;48.792;9.202;2023-04-24T09:06:40;1.23;;;1.10;;
9759;SDS011;4919;48.792;9.202;2023-04-24T09:09:25;1.30;;;1.10;;
9759;SDS011;4919;48.792;9.202;2023-04-24T09:12:10;1.37;;;1.20;;
9759;SDS011;4919;48.792;9.202;2023-04-24T09:14:56;1.47;;;1.37;;
9759;SDS011;4919;48.792;9.202;2023-04-24T09:17:43;1.37;;;1.20;;
9759;SDS011;4919;48.792;9.202;2023-04-24T09:20:28;2.13;;;1.40;;
9759;SDS011;4919;48.792;9.202;2023-04-24T09:23:17;2.67;;;1.60;;
9759;SDS011;4919;48.792;9.202;2023-04-24T09:26:02;2.27;;;1.47;;
9759;SDS011;4919;48.792;9.202;2023-04-24T09:28:48;2.37;;;1.47;;
9759;SDS011;4919;48.792;9.202;2023-04-24T09:31:33;1.60;;;1.10;;
9759;SDS011;4919;48.792;9.202;2023-04-24T09:34:21;1.23;;;1.10;;
9759;SDS011;4919;48.792;9.202;2023-04-24T09:37:07;2.30;;;1.20;;
9759;SDS011;4919;48.792;9.202;2023-04-24T09:40:08;1.17;;;1.07;;
9759;SDS011;4919;48.792;9.202;2023-04-24T09:43:01;1.43;;;1.10;;
9759;SDS011;4919;48.792;9.202;2023-04-24T09:45:46;2.47;;;1.00;;
9759;SDS011;4919;48.792;9.202;2023-04-24T09:48:31;1.67;;;1.10;;
9759;SDS011;4919;48.792;9.202;2023-04-24T09:51:17;1.57;;;1.10;;
9759;SDS011;4919;48.792;9.202;2023-04-24T09:54:19;2.30;;;1.30;;
9759;SDS011;4919;48.792;9.202;2023-04-24T09:57:07;2.53;;;1.20;;
9759;SDS011;4919;48.792;9.202;2023-04-24T09:59:53;1.40;;;1.20;;
9759;SDS011;4919;48.792;9.202;2023-04-24T10:02:38;3.27;;;1.30;;
9759;SDS011;4919;48.792;9.202;2023-04-24T10:05:23;1.67;;;1.27;;
9759;SDS011;4919;48.792;9.202;2023-04-24T10:08:12;1.17;;;1.10;;
9759;SDS011;4919;48.792;9.202;2023-04-24T10:10:58;2.67;;;1.20;;
9759;SDS011;4919;48.792;9.202;2023-04-24T10:13:43;3.50;;;1.13;;
9759;SDS011;4919;48.792;9.202;2023-04-24T10:16:28;1.33;;;1.20;;
9759;SDS011;4919;48.792;9.202;2023-04-24T10:19:15;2.13;;;1.40;;
9759;SDS011;4919;48.792;9.202;2023-04-24T10:22:00;2.90;;;1.30;;
9759;SDS011;4919;48.792;9.202;2023-04-24T10:24:46;1.73;;;1.30;;
9759;SDS011;4919;48.792;9.202;2023-04-24T10:27:33;2.00;;;1.40;;
9759;SDS011;4919;48.792;9.202;2023-04-24T10:30:19;2.13;;;1.20;;
9759;SDS011;4919;48.792;9.202;2023-04-24T10:33:05;1.83;;;1.20;;
9759;SDS011;4919;48.792;9.202;2023-04-24T10:35:51;1.20;;;1.10;;
9759;SDS011;4919;48.792;9.202;2023-04-24T10:38:37;1.93;;;1.10;;
9759;SDS011;4919;48.792;9.202;2023-04-24T10:41:25;2.20;;;1.27;;
9759;SDS011;4919;48.792;9.202;2023-04-24T10:44:11;1.23;;;1.13;;
9759;SDS011;4919;48.792;9.202;2023-04-24T10:46:57;2.17;;;1.10;;
9759;SDS011;4919;48.792;9.202;2023-04-24T10:49:42;3.67;;;1.30;;
9759;SDS011;4919;48.792;9.202;2023-04-24T10:52:43;2.77;;;1.30;;
9759;SDS011;4919;48.792;9.202;2023-04-24T10:55:50;2.47;;;1.20;;
9759;SDS011;4919;48.792;9.202;2023-04-24T11:01:30;1.13;;;1.03;;
9759;SDS011;4919;48.792;9.202;2023-04-24T11:04:22;1.83;;;1.37;;
9759;SDS011;4919;48.792;9.202;2023-04-24T11:07:13;1.40;;;1.30;;
9759;SDS011;4919;48.792;9.202;2023-04-24T11:09:58;1.37;;;1.20;;
9759;SDS011;4919;48.792;9.202;2023-04-24T11:12:43;4.07;;;1.30;;
9759;SDS011;4919;48.792;9.202;2023-04-24T11:15:28;1.50;;;1.40;;
9759;SDS011;4919;48.792;9.202;2023-04-24T11:18:13;1.40;;;1.00;;
9759;SDS011;4919;48.792;9.202;2023-04-24T11:20:58;2.30;;;1.30;;
9759;SDS011;4919;48.792;9.202;2023-04-24T11:23:53;1.77;;;1.60;;
9759;SDS011;4919;48.792;9.202;2023-04-24T11:26:38;3.47;;;1.70;;
9759;SDS011;4919;48.792;9.202;2023-04-24T11:29:38;2.83;;;1.47;;
9759;SDS011;4919;48.792;9.202;2023-04-24T11:35:21;1.50;;;1.40;;
9759;SDS011;4919;48.792;9.202;2023-04-24T11:38:06;1.80;;;1.70;;
9759;SDS011;4919;48.792;9.202;2023-04-24T11:40:51;3.77;;;1.97;;
9759;SDS011;4919;48.792;9.202;2023-04-24T11:43:37;2.57;;;1.80;;
9759;SDS011;4919;48.792;9.202;2023-04-24T11:46:26;2.20;;;2.00;;
9759;SDS011;4919;48.792;9.202;2023-04-24T11:49:14;3.10;;;2.20;;
9759;SDS011;4919;48.792;9.202;2023-04-24T11:52:00;3.57;;;1.77;;
9759;SDS011;4919;48.792;9.202;2023-04-24T11:54:49;2.20;;;2.00;;
9759;SDS011;4919;48.792;9.202;2023-04-24T11:57:34;2.20;;;1.87;;
9759;SDS011;4919;48.792;9.202;2023-04-24T12:00:20;2.33;;;1.70;;
9759;SDS011;4919;48.792;9.202;2023-04-24T12:03:09;2.30;;;1.73;;
9759;SDS011;4919;48.792;9.202;2023-04-24T12:06:08;1.97;;;1.70;;
9759;SDS011;4919;48.792;9.202;2023-04-24T12:08:54;2.40;;;1.90;;
9759;SDS011;4919;48.792;9.202;2023-04-24T12:11:39;3.13;;;2.00;;
9759;SDS011;4919;48.792;9.202;2023-04-24T12:14:44;2.27;;;2.00;;
9759;SDS011;4919;48.792;9.202;2023-04-24T12:17:32;3.10;;;1.80;;
9759;SDS011;4919;48.792;9.202;2023-04-24T12:20:23;3.30;;;2.07;;
9759;SDS011;4919;48.792;9.202;2023-04-24T12:23:08;1.60;;;1.50;;
9759;SDS011;4919;48.792;9.202;2023-04-24T12:25:53;1.60;;;1.30;;
9759;SDS011;4919;48.792;9.202;2023-04-24T12:28:45;2.17;;;1.20;;
9759;SDS011;4919;48.792;9.202;2023-04-24T12:31:32;1.57;;;1.33;;
9759;SDS011;4919;48.792;9.202;2023-04-24T12:34:20;1.20;;;1.10;;
9759;SDS011;4919;48.792;9.202;2023-04-24T12:37:10;1.10;;;1.10;;
9759;SDS011;4919;48.792;9.202;2023-04-24T12:42:50;1.80;;;1.30;;
9759;SDS011;4919;48.792;9.202;2023-04-24T12:45:35;1.53;;;1.00;;
9759;SDS011;4919;48.792;9.202;2023-04-24T12:48:20;1.53;;;1.13;;
9759;SDS011;4919;48.792;9.202;2023-04-24T12:51:05;1.27;;;1.00;;
9759;SDS011;4919;48.792;9.202;2023-04-24T12:53:50;1.20;;;1.10;;
9759;SDS011;4919;48.792;9.202;2023-04-24T12:56:35;1.37;;;1.07;;
9759;SDS011;4919;48.792;9.202;2023-04-24T12:59:20;1.43;;;1.33;;
9759;SDS011;4919;48.792;9.202;2023-04-24T13:02:06;1.47;;;1.07;;
9759;SDS011;4919;48.792;9.202;2023-04-24T13:04:51;1.20;;;1.10;;
9759;SDS011;4919;48.792;9.202;2023-04-24T13:07:36;1.90;;;1.43;;
9759;SDS011;4919;48.792;9.202;2023-04-24T13:10:21;1.97;;;1.03;;
9759;SDS011;4919;48.792;9.202;2023-04-24T13:13:05;1.73;;;0.90;;
9759;SDS011;4919;48.792;9.202;2023-04-24T13:15:50;1.03;;;0.90;;
9759;SDS011;4919;48.792;9.202;2023-04-24T13:18:35;1.10;;;1.00;;
9759;SDS011;4919;48.792;9.202;2023-04-24T13:21:20;1.03;;;1.03;;
9759;SDS011;4919;48.792;9.202;2023-04-24T13:24:05;1.87;;;1.20;;
9759;SDS011;4919;48.792;9.202;2023-04-24T13:26:50;2.00;;;1.20;;
9759;SDS011;4919;48.792;9.202;2023-04-24T13:29:36;1.90;;;1.27;;
9759;SDS011;4919;48.792;9.202;2023-04-24T13:32:21;2.23;;;0.90;;
9759;SDS011;4919;48.792;9.202;2023-04-24T13:35:06;1.10;;;1.00;;
9759;SDS011;4919;48.792;9.202;2023-04-24T13:37:51;2.17;;;1.13;;
9759;SDS011;4919;48.792;9.202;2023-04-24T13:40:36;1.53;;;1.37;;
9759;SDS011;4919;48.792;9.202;2023-04-24T13:43:21;1.63;;;1.17;;
9759;SDS011;4919;48.792;9.202;2023-04-24T13:46:06;1.43;;;1.00;;
9759;SDS011;4919;48.792;9.202;2023-04-24T13:48:51;2.07;;;1.00;;
9759;SDS011;4919;48.792;9.202;2023-04-24T13:51:36;1.20;;;1.10;;
9759;SDS011;4919;48.792;9.202;2023-04-24T13:54:21;1.93;;;1.20;;
9759;SDS011;4919;48.792;9.202;2023-04-24T13:57:06;1.23;;;1.10;;
9759;SDS011;4919;48.792;9.202;2023-04-24T13:59:51;2.83;;;1.10;;
9759;SDS011;4919;48.792;9.202;2023-04-24T14:02:36;1.43;;;1.27;;
9759;SDS011;4919;48.792;9.202;2023-04-24T14:05:21;1.00;;;1.00;;
9759;SDS011;4919;48.792;9.202;2023-04-24T14:08:05;2.23;;;1.10;;
9759;SDS011;4919;48.792;9.202;2023-04-24T14:10:51;1.63;;;1.10;;
9759;SDS011;4919;48.792;9.202;2023-04-24T14:13:36;1.10;;;1.10;;
9759;SDS011;4919;48.792;9.202;2023-04-24T14:16:21;1.33;;;1.00;;
9759;SDS011;4919;48.792;9.202;2023-04-24T14:19:06;1.53;;;1.20;;
9759;SDS011;4919;48.792;9.202;2023-04-24T14:21:50;1.40;;;1.17;;
9759;SDS011;4919;48.792;9.202;2023-04-24T14:24:35;2.73;;;1.30;;
9759;SDS011;4919;48.792;9.202;2023-04-24T14:27:20;2.40;;;1.17;;
9759;SDS011;4919;48.792;9.202;2023-04-24T14:30:05;1.23;;;1.13;;
9759;SDS011;4919;48.792;9.202;2023-04-24T14:32:51;1.50;;;1.07;;
9759;SDS011;4919;48.792;9.202;2023-04-24T14:35:36;3.20;;;1.20;;
9759;SDS011;4919;48.792;9.202;2023-04-24T14:38:21;1.30;;;1.20;;
9759;SDS011;4919;48.792;9.202;2023-04-24T14:41:06;1.50;;;1.30;;
9759;SDS011;4919;48.792;9.202;2023-04-24T14:43:51;1.40;;;1.30;;
9759;SDS011;4919;48.792;9.202;2023-04-24T14:46:36;1.67;;;1.20;;
9759;SDS011;4919;48.792;9.202;2023-04-24T14:49:21;2.40;;;1.47;;
9759;SDS011;4919;48.792;9.202;2023-04-24T14:52:05;3.33;;;1.30;;
9759;SDS011;4919;48.792;9.202;2023-04-24T14:54:50;1.53;;;1.30;;
9759;SDS011;4919;48.792;9.202;2023-04-24T14:57:35;1.63;;;1.23;;
9759;SDS011;4919;48.792;9.202;2023-04-24T15:00:20;1.93;;;1.20;;
9759;SDS011;4919;48.792;9.202;2023-04-24T15:03:06;1.33;;;1.20;;
9759;SDS011;4919;48.792;9.202;2023-04-24T15:05:50;2.07;;;1.60;;
9759;SDS011;4919;48.792;9.202;2023-04-24T15:08:35;2.23;;;1.53;;
9759;SDS011;4919;48.792;9.202;2023-04-24T15:11:20;2.17;;;1.30;;
9759;SDS011;4919;48.792;9.202;2023-04-24T15:14:05;1.40;;;1.30;;
9759;SDS011;4919;48.792;9.202;2023-04-24T15:16:50;2.20;;;1.30;;
9759;SDS011;4919;48.792;9.202;2023-04-24T15:19:35;1.33;;;1.20;;
9759;SDS011;4919;48.792;9.202;2023-04-24T15:22:20;5.50;;;1.60;;
9759;SDS011;4919;48.792;9.202;2023-04-24T15:25:05;1.40;;;1.30;;
9759;SDS011;4919;48.792;9.202;2023-04-24T15:27:50;3.23;;;1.50;;
9759;SDS011;4919;48.792;9.202;2023-04-24T15:30:35;2.10;;;1.30;;
9759;SDS011;4919;48.792;9.202;2023-04-24T15:33:20;1.57;;;1.40;;
9759;SDS011;4919;48.792;9.202;2023-04-24T15:36:05;3.80;;;1.40;;
9759;SDS011;4919;48.792;9.202;2023-04-24T15:38:50;2.83;;;1.30;;
9759;SDS011;4919;48.792;9.202;2023-04-24T15:41:34;2.73;;;1.40;;
9759;SDS011;4919;48.792;9.202;2023-04-24T15:44:20;2.17;;;1.30;;
9759;SDS011;4919;48.792;9.202;2023-04-24T15:47:05;1.87;;;1.43;;
9759;SDS011;4919;48.792;9.202;2023-04-24T15:49:51;1.40;;;1.20;;
9759;SDS011;4919;48.792;9.202;2023-04-24T15:52:36;1.67;;;1.40;;
9759;SDS011;4919;48.792;9.202;2023-04-24T15:55:21;1.87;;;1.60;;
9759;SDS011;4919;48.792;9.202;2023-04-24T15:58:06;1.40;;;1.30;;
9759;SDS011;4919;48.792;9.202;2023-04-24T16:00:50;1.40;;;1.30;;
9759;SDS011;4919;48.792;9.202;2023-04-24T16:03:35;1.73;;;1.50;;
9759;SDS011;4919;48.792;9.202;2023-04-24T16:06:20;3.37;;;1.33;;
9759;SDS011;4919;48.792;9.202;2023-04-24T16:09:05;1.63;;;1.47;;
9759;SDS011;4919;48.792;9.202;2023-04-24T16:11:50;2.50;;;1.30;;
9759;SDS011;4919;48.792;9.202;2023-04-24T16:14:35;1.93;;;1.40;;
9759;SDS011;4919;48.792;9.202;2023-04-24T16:17:21;1.40;;;1.30;;
9759;SDS011;4919;48.792;9.202;2023-04-24T16:20:06;1.53;;;1.43;;
9759;SDS011;4919;48.792;9.202;2023-04-24T16:22:51;2.33;;;1.70;;
9759;SDS011;4919;48.792;9.202;2023-04-24T16:25:36;1.57;;;1.47;;
9759;SDS011;4919;48.792;9.202;2023-04-24T16:28:21;1.30;;;1.20;;
9759;SDS011;4919;48.792;9.202;2023-04-24T16:31:06;1.60;;;1.40;;
9759;SDS011;4919;48.792;9.202;2023-04-24T16:33:51;1.83;;;1.30;;
9759;SDS011;4919;48.792;9.202;2023-04-24T16:36:36;1.20;;;1.10;;
9759;SDS011;4919;48.792;9.202;2023-04-24T16:39:21;2.33;;;1.83;;
9759;SDS011;4919;48.792;9.202;2023-04-24T16:42:06;1.27;;;1.17;;
9759;SDS011;4919;48.792;9.202;2023-04-24T16:44:51;1.70;;;1.27;;
9759;SDS011;4919;48.792;9.202;2023-04-24T16:47:36;1.20;;;1.10;;
9759;SDS011;4919;48.792;9.202;2023-04-24T16:50:21;1.03;;;1.00;;
9759;SDS011;4919;48.792;9.202;2023-04-24T16:53:05;1.50;;;1.30;;
9759;SDS011;4919;48.792;9.202;2023-04-24T16:55:50;1.50;;;1.40;;
9759;SDS011;4919;48.792;9.202;2023-04-24T16:58:35;1.87;;;1.17;;
9759;SDS011;4919;48.792;9.202;2023-04-24T17:01:20;1.20;;;1.10;;
9759;SDS011;4919;48.792;9.202;2023-04-24T17:04:05;1.03;;;1.03;;
9759;SDS011;4919;48.792;9.202;2023-04-24T17:06:50;1.60;;;1.20;;
9759;SDS011;4919;48.792;9.202;2023-04-24T17:09:34;2.13;;;1.23;;
9759;SDS011;4919;48.792;9.202;2023-04-24T17:12:19;1.60;;;1.33;;
9759;SDS011;4919;48.792;9.202;2023-04-24T17:15:04;1.83;;;1.10;;
9759;SDS011;4919;48.792;9.202;2023-04-24T17:17:50;1.40;;;1.30;;